Time;durP1;ratioP1;P1;durP2;ratioP2;P2;SDS_P1;SDS_P2;PMS_P1;PMS_P2;Temp;Humidity;BMP_temperature;BMP_pressure;BME280_temperature;BME280_humidity;BME280_pressure;Samples;Min_cycle;Max_cycle;Signal;HPM_P1;HPM_P2
2022/11/05 00:09:34;;;;;;;38.37;30.27;;;;;;;13.02;100.00;100962.94;2071508;28;20397;-69
2022/11/05 00:10:37;;;;;;;38.87;29.73;;;;;;;13.01;100.00;100964.16;2072858;28;20838;-69
2022/11/05 00:16:56;;;;;;;35.70;30.27;;;;;;;12.99;100.00;100980.53;2072403;28;20832;-69
2022/11/05 00:17:56;;;;;;;37.13;29.47;;;;;;;12.90;100.00;100960.06;2072618;28;20436;-69
2022/11/05 00:19:05;;;;;;;39.50;28.03;;;;;;;12.97;100.00;100966.25;2071932;28;20240;-69
2022/11/05 00:20:08;;;;;;;34.40;26.93;;;;;;;12.79;100.00;100952.03;2071447;28;20174;-69
2022/11/05 00:25:12;;;;;;;33.37;26.33;;;;;;;12.92;100.00;100966.75;2072071;28;20971;-69
2022/11/05 00:25:15;;;;;;;36.53;27.70;;;;;;;12.95;100.00;100960.34;2071939;28;20931;-69
2022/11/05 00:26:15;;;;;;;36.10;28.70;;;;;;;13.00;100.00;100970.16;2072410;28;20961;-69
2022/11/05 00:27:16;;;;;;;35.10;28.87;;;;;;;13.01;100.00;100964.16;2071894;28;20858;-69
2022/11/05 00:28:16;;;;;;;27.83;23.60;;;;;;;13.00;100.00;100953.47;2072261;28;20274;-69
2022/11/05 00:29:17;;;;;;;38.50;28.57;;;;;;;13.05;100.00;100958.50;2072171;28;20186;-69
2022/11/05 00:30:20;;;;;;;40.70;29.77;;;;;;;12.75;100.00;100911.66;2071290;28;20664;-69
2022/11/05 00:31:20;;;;;;;41.00;30.17;;;;;;;12.95;100.00;100940.06;2072230;28;20210;-69
2022/11/05 00:32:21;;;;;;;36.47;29.80;;;;;;;13.01;100.00;100955.81;2072693;28;20974;-69
2022/11/05 00:33:21;;;;;;;36.03;27.70;;;;;;;13.04;100.00;100957.72;2072631;28;20227;-69
2022/11/05 00:34:22;;;;;;;36.20;27.07;;;;;;;12.88;100.00;100929.16;2072016;28;20194;-69
2022/11/05 00:35:22;;;;;;;32.50;25.33;;;;;;;13.07;100.00;100958.84;2071955;28;20221;-69
2022/11/05 00:36:22;;;;;;;31.90;23.97;;;;;;;13.06;100.00;100949.72;2072072;28;20204;-69
2022/11/05 00:37:23;;;;;;;25.87;23.00;;;;;;;13.02;100.00;100949.03;2072281;28;27151;-69
2022/11/05 00:38:24;;;;;;;30.30;23.47;;;;;;;12.53;100.00;100885.66;2072343;28;20222;-69
2022/11/05 00:39:24;;;;;;;32.37;23.67;;;;;;;13.09;100.00;100948.03;2071898;28;20187;-69
2022/11/05 00:40:24;;;;;;;27.80;22.67;;;;;;;13.10;100.00;100944.03;2072600;28;20653;-69
2022/11/05 00:41:25;;;;;;;31.50;24.63;;;;;;;13.15;100.00;100941.50;2072122;28;20635;-69
2022/11/05 00:45:05;;;;;;;30.87;24.00;;;;;;;12.98;100.00;100942.81;2072065;28;20484;-69
2022/11/05 00:46:05;;;;;;;31.00;23.47;;;;;;;13.08;100.00;100949.28;2071539;28;20576;-69
2022/11/05 00:49:44;;;;;;;29.00;23.73;;;;;;;12.61;100.00;100871.09;2071304;28;20876;-67
2022/11/05 00:50:45;;;;;;;29.00;22.33;;;;;;;13.20;100.00;100942.94;2072462;28;20418;-67
2022/11/05 00:51:45;;;;;;;29.37;24.27;;;;;;;13.27;100.00;100962.25;2071841;28;20612;-67
2022/11/05 00:52:55;;;;;;;31.00;24.27;;;;;;;13.31;100.00;100960.09;2071647;28;20274;-69
2022/11/05 00:53:56;;;;;;;30.90;24.83;;;;;;;13.35;100.00;100967.16;2072572;28;20231;-69
2022/11/05 00:54:56;;;;;;;30.50;23.17;;;;;;;13.38;100.00;100959.91;2071473;28;20451;-69
2022/11/05 00:55:57;;;;;;;30.07;23.17;;;;;;;12.46;100.00;100814.34;2072485;28;20645;-69
2022/11/05 00:56:57;;;;;;;32.30;22.67;;;;;;;13.42;100.00;100960.59;2072104;28;20610;-69
2022/11/05 00:57:58;;;;;;;29.50;23.03;;;;;;;13.42;100.00;100957.81;2072208;28;20222;-69
2022/11/05 00:58:58;;;;;;;25.90;22.43;;;;;;;13.41;100.00;100950.66;2072057;28;20194;-69
2022/11/05 00:59:59;;;;;;;30.43;24.20;;;;;;;13.19;100.00;100944.97;2072375;28;20190;-69
2022/11/05 01:01:00;;;;;;;28.07;23.03;;;;;;;13.44;100.00;100960.91;2072178;28;20205;-69
2022/11/05 01:02:01;;;;;;;28.53;24.37;;;;;;;12.76;100.00;100843.69;2072131;28;20194;-69
2022/11/05 01:03:05;;;;;;;31.07;23.83;;;;;;;13.52;100.00;100951.13;2071783;28;20944;-69
2022/11/05 01:04:05;;;;;;;27.67;23.17;;;;;;;13.44;100.00;100947.00;2072012;28;20198;-69
2022/11/05 01:05:06;;;;;;;30.83;24.23;;;;;;;13.45;100.00;100943.78;2071668;28;20448;-69
2022/11/05 01:06:13;;;;;;;30.33;23.57;;;;;;;13.47;100.00;100954.47;2072049;28;20203;-69
2022/11/05 01:07:14;;;;;;;30.27;24.20;;;;;;;13.38;100.00;100946.00;2071703;28;20662;-69
2022/11/05 01:08:17;;;;;;;34.50;24.53;;;;;;;13.55;100.00;100945.47;2071984;28;20814;-69
2022/11/05 01:09:18;;;;;;;33.33;23.43;;;;;;;13.56;100.00;100949.81;2072046;28;20184;-69
2022/11/05 01:10:19;;;;;;;28.93;23.57;;;;;;;13.61;100.00;100957.59;2071974;28;20435;-69
2022/11/05 01:11:32;;;;;;;31.77;23.13;;;;;;;13.63;100.00;100955.13;2071751;28;20218;-69
2022/11/05 01:12:33;;;;;;;27.63;23.33;;;;;;;13.62;100.00;100950.81;2072088;28;20422;-69
2022/11/05 01:13:33;;;;;;;29.80;23.07;;;;;;;13.58;100.00;100941.78;2072121;28;20501;-69
2022/11/05 01:14:33;;;;;;;28.20;22.30;;;;;;;13.58;100.00;100938.22;2071668;28;20194;-70
2022/11/05 01:15:36;;;;;;;31.20;22.33;;;;;;;13.56;100.00;100944.22;2071170;28;20198;-69
2022/11/05 01:16:37;;;;;;;27.43;23.10;;;;;;;13.57;100.00;100940.22;2072040;28;20191;-69
2022/11/05 01:17:38;;;;;;;31.00;24.00;;;;;;;13.36;100.00;100910.25;2071681;28;20466;-69
2022/11/05 01:18:38;;;;;;;30.83;23.40;;;;;;;13.53;100.00;100933.22;2071392;28;20969;-69
2022/11/05 01:19:39;;;;;;;28.50;22.87;;;;;;;13.55;100.00;100936.31;2071666;28;20192;-69
2022/11/05 01:20:39;;;;;;;29.90;22.47;;;;;;;13.51;100.00;100936.44;2071732;28;20253;-69
2022/11/05 01:21:40;;;;;;;27.77;22.53;;;;;;;13.48;100.00;100936.53;2071558;28;20302;-69
2022/11/05 01:22:40;;;;;;;30.77;23.33;;;;;;;13.47;100.00;100932.97;2071661;28;20199;-69
2022/11/05 01:23:41;;;;;;;40.40;23.57;;;;;;;11.86;100.00;100695.03;2072185;28;20192;-69
2022/11/05 01:24:41;;;;;;;39.47;24.40;;;;;;;13.52;100.00;100937.22;2070887;28;20203;-69
2022/11/05 01:25:42;;;;;;;35.07;23.53;;;;;;;13.51;100.00;100930.06;2070846;28;20212;-69
2022/11/05 01:26:43;;;;;;;31.70;23.63;;;;;;;13.48;100.00;100926.16;2071768;28;20190;-69
2022/11/05 01:27:43;;;;;;;32.17;24.20;;;;;;;13.45;100.00;100924.28;2071604;28;20485;-69
2022/11/05 01:28:44;;;;;;;29.73;23.53;;;;;;;12.75;100.00;100823.44;2072223;28;20254;-69
2022/11/05 01:29:44;;;;;;;31.67;23.63;;;;;;;13.35;100.00;100919.81;2071145;28;20216;-69
2022/11/05 01:30:45;;;;;;;32.37;24.07;;;;;;;13.40;100.00;100935.19;2071925;28;20206;-69
2022/11/05 01:31:45;;;;;;;31.97;24.47;;;;;;;13.39;100.00;100930.84;2071934;28;20204;-69
2022/11/05 01:32:46;;;;;;;31.43;24.23;;;;;;;13.39;100.00;100923.28;2071360;28;20210;-69
2022/11/05 01:33:46;;;;;;;29.97;23.67;;;;;;;13.36;100.00;100913.03;2071338;28;20207;-69
2022/11/05 01:34:47;;;;;;;33.63;23.83;;;;;;;12.37;100.00;100771.75;2071699;28;20249;-69
2022/11/05 01:35:50;;;;;;;28.33;22.93;;;;;;;13.33;100.00;100913.16;2070653;28;20216;-69
2022/11/05 01:36:50;;;;;;;29.23;22.87;;;;;;;12.82;100.00;100859.38;2071226;28;20275;-69
2022/11/05 01:37:51;;;;;;;29.73;23.33;;;;;;;13.32;100.00;100912.34;2071325;28;20442;-69
2022/11/05 01:38:51;;;;;;;31.90;23.83;;;;;;;13.26;100.00;100902.22;2071847;28;20218;-69
2022/11/05 01:39:52;;;;;;;28.87;23.73;;;;;;;13.20;100.00;100890.88;2071327;28;20192;-69
2022/11/05 01:40:52;;;;;;;33.47;23.67;;;;;;;13.27;100.00;100901.00;2071620;28;20190;-69
2022/11/05 01:41:53;;;;;;;30.43;23.30;;;;;;;13.26;100.00;100899.41;2071745;28;20632;-69
2022/11/05 01:42:53;;;;;;;31.67;23.37;;;;;;;13.24;100.00;100902.69;2071497;28;20246;-69
2022/11/05 01:43:58;;;;;;;30.30;23.07;;;;;;;13.03;100.00;100875.50;2071404;28;20190;-69
2022/11/05 01:45:03;;;;;;;30.60;24.07;;;;;;;13.21;100.00;100897.22;2071315;28;20183;-69
2022/11/05 01:46:03;;;;;;;35.13;25.57;;;;;;;12.70;100.00;100823.22;2070975;28;20465;-69
2022/11/05 01:47:04;;;;;;;31.13;25.13;;;;;;;13.14;100.00;100906.56;2071042;28;20438;-69
2022/11/05 01:48:16;;;;;;;31.90;24.10;;;;;;;13.06;100.00;100924.66;2071168;28;20197;-69
2022/11/05 01:49:19;;;;;;;31.83;24.43;;;;;;;13.12;100.00;100902.66;2072066;28;20194;-69
2022/11/05 01:50:29;;;;;;;29.87;22.97;;;;;;;13.08;100.00;100907.53;2070582;28;20476;-69
2022/11/05 01:51:30;;;;;;;27.53;23.40;;;;;;;13.06;100.00;100905.19;2071879;28;20455;-69
2022/11/05 01:52:32;;;;;;;29.73;22.93;;;;;;;13.06;100.00;100901.66;2071197;28;20822;-69
2022/11/05 01:53:43;;;;;;;30.73;24.47;;;;;;;13.04;100.00;100892.94;2071767;28;20435;-69
2022/11/05 01:54:45;;;;;;;28.20;23.70;;;;;;;13.02;100.00;100892.63;2071689;28;20828;-69
2022/11/05 01:56:05;;;;;;;29.90;23.00;;;;;;;12.21;100.00;100782.94;2071734;28;20445;-69
2022/11/05 01:57:08;;;;;;;28.27;21.83;;;;;;;12.92;100.00;100886.09;2071701;28;20499;-69
2022/11/05 01:58:15;;;;;;;29.97;23.57;;;;;;;12.88;100.00;100879.88;2071698;28;20885;-69
2022/11/05 01:59:31;;;;;;;26.60;22.67;;;;;;;12.88;100.00;100876.31;2071301;28;20493;-69
2022/11/05 02:00:33;;;;;;;31.80;22.17;;;;;;;12.00;100.00;100748.19;2070986;28;20520;-69
2022/11/05 02:01:33;;;;;;;34.60;26.13;;;;;;;12.77;100.00;100876.63;2071265;28;20435;-69
2022/11/05 02:02:34;;;;;;;28.77;23.90;;;;;;;12.74;100.00;100871.94;2071226;28;20511;-69
2022/11/05 02:03:35;;;;;;;31.43;25.33;;;;;;;12.71;100.00;100870.03;2071177;28;20186;-69
2022/11/05 02:04:41;;;;;;;33.20;25.80;;;;;;;12.71;100.00;100874.81;2071326;28;20294;-69
2022/11/05 02:05:43;;;;;;;30.30;25.37;;;;;;;12.66;100.00;100865.00;2070942;28;20763;-69
2022/11/05 02:06:46;;;;;;;33.07;25.33;;;;;;;12.65;100.00;100874.56;2071409;28;20494;-69
2022/11/05 02:07:48;;;;;;;31.47;26.53;;;;;;;12.61;100.00;100882.22;2071062;28;20445;-69
2022/11/05 02:08:57;;;;;;;34.00;26.77;;;;;;;12.59;100.00;100881.91;2071512;28;20452;-69
2022/11/05 02:10:07;;;;;;;33.40;26.77;;;;;;;12.57;100.00;100884.34;2071224;28;20413;-69
2022/11/05 02:11:08;;;;;;;32.93;26.77;;;;;;;12.53;100.00;100883.66;2071463;28;20440;-69
2022/11/05 02:12:10;;;;;;;32.83;26.97;;;;;;;12.51;100.00;100880.53;2071543;28;20439;-69
2022/11/05 02:13:11;;;;;;;34.50;28.33;;;;;;;12.50;100.00;100887.31;2071767;28;20653;-69
2022/11/05 02:14:11;;;;;;;34.47;28.03;;;;;;;12.50;100.00;100884.53;2071499;28;20879;-69
2022/11/05 02:15:15;;;;;;;34.90;27.63;;;;;;;12.49;100.00;100901.63;2070577;28;20206;-69
2022/11/05 02:16:34;;;;;;;40.80;28.77;;;;;;;12.46;100.00;100877.50;2071266;28;20190;-69
2022/11/05 02:17:56;;;;;;;38.13;28.07;;;;;;;12.38;100.00;100874.16;2071336;28;20447;-69
2022/11/05 02:19:16;;;;;;;38.07;27.00;;;;;;;12.43;100.00;100883.94;2071662;28;20828;-69
2022/11/05 02:20:46;;;;;;;36.57;26.87;;;;;;;12.39;100.00;100877.69;2071100;28;20951;-69
2022/11/05 02:22:05;;;;;;;33.37;27.10;;;;;;;12.34;100.00;100878.25;2070824;28;20860;-69
2022/11/05 02:23:27;;;;;;;34.57;27.10;;;;;;;12.32;100.00;100875.91;2070733;28;20930;-69
2022/11/05 02:24:48;;;;;;;31.37;25.57;;;;;;;12.32;100.00;100886.22;2071455;28;20424;-69
2022/11/05 02:26:26;;;;;;;36.77;24.73;;;;;;;12.28;100.00;100888.31;2071348;28;20476;-69
2022/11/05 02:27:44;;;;;;;30.97;24.53;;;;;;;12.28;100.00;100882.75;2071605;28;20849;-69
2022/11/05 02:29:04;;;;;;;30.40;23.07;;;;;;;12.25;100.00;100880.88;2070528;28;20409;-69
2022/11/05 02:30:28;;;;;;;33.77;25.77;;;;;;;12.21;100.00;100880.97;2070481;28;20420;-69
2022/11/05 02:31:41;;;;;;;34.53;25.93;;;;;;;12.23;100.00;100883.28;2071591;28;20424;-69
2022/11/05 02:33:04;;;;;;;33.03;25.83;;;;;;;12.25;100.00;100875.31;2071201;28;20441;-69
2022/11/05 02:34:27;;;;;;;39.23;26.77;;;;;;;12.01;100.00;100838.63;2071013;28;20425;-69
2022/11/05 02:35:27;;;;;;;36.27;26.40;;;;;;;12.24;100.00;100868.97;2071603;28;20983;-69
2022/11/05 02:36:49;;;;;;;36.80;25.70;;;;;;;12.18;100.00;100861.59;2078224;28;20494;-69
2022/11/05 02:37:53;;;;;;;33.97;25.70;;;;;;;12.18;100.00;100867.16;2076140;28;20186;-69
2022/11/05 02:39:03;;;;;;;32.37;24.23;;;;;;;12.18;100.00;100869.94;2070432;28;20491;-69
2022/11/05 02:40:32;;;;;;;36.27;24.83;;;;;;;12.17;100.00;100869.16;2071413;28;20409;-69
2022/11/05 02:41:39;;;;;;;33.00;24.87;;;;;;;12.18;100.00;100870.72;2071146;28;20943;-69
2022/11/05 02:42:40;;;;;;;35.53;26.57;;;;;;;12.19;100.00;100877.06;2071237;28;20512;-69
2022/11/05 02:43:54;;;;;;;33.47;26.43;;;;;;;11.69;100.00;100810.88;2071225;28;20482;-69
2022/11/05 02:45:04;;;;;;;29.37;24.97;;;;;;;12.17;100.00;100874.72;2070942;28;20186;-69
2022/11/05 02:46:34;;;;;;;34.53;25.67;;;;;;;12.09;100.00;100864.22;2071261;28;20505;-69
2022/11/05 02:47:37;;;;;;;30.57;23.30;;;;;;;12.14;100.00;100869.25;2071095;28;20941;-69
2022/11/05 02:48:49;;;;;;;27.27;22.53;;;;;;;11.94;100.00;100849.16;2071421;28;20530;-69
2022/11/05 02:49:58;;;;;;;29.10;22.10;;;;;;;12.05;100.00;100869.84;2070739;28;20549;-69
2022/11/05 02:51:15;;;;;;;29.80;22.53;;;;;;;12.01;100.00;100876.72;2071331;28;20925;-69
2022/11/05 02:52:24;;;;;;;31.87;24.87;;;;;;;11.34;100.00;100788.78;2071255;28;20941;-69
2022/11/05 02:53:47;;;;;;;28.77;22.23;;;;;;;11.94;100.00;100879.69;2070341;28;20658;-69
2022/11/05 02:54:57;;;;;;;31.03;23.27;;;;;;;11.88;100.00;100896.09;2072978;28;20456;-69
2022/11/05 02:56:03;;;;;;;32.27;24.87;;;;;;;11.89;100.00;100889.31;2070785;28;20809;-69
2022/11/05 02:57:04;;;;;;;30.40;24.00;;;;;;;11.81;100.00;100876.06;2071355;28;20455;-69
2022/11/05 02:58:05;;;;;;;31.23;25.07;;;;;;;11.88;100.00;100885.00;2071029;28;20492;-69
2022/11/05 02:59:05;;;;;;;31.63;24.57;;;;;;;11.87;100.00;100879.84;2070997;28;20448;-69
2022/11/05 03:00:37;;;;;;;32.87;25.23;;;;;;;11.78;100.00;100885.25;2070899;28;20448;-69
2022/11/05 03:01:39;;;;;;;33.73;23.40;;;;;;;11.74;100.00;100885.31;2071427;28;20200;-69
2022/11/05 03:02:39;;;;;;;29.70;23.37;;;;;;;11.52;100.00;100852.97;2071128;28;20563;-69
2022/11/05 03:03:44;;;;;;;37.20;25.03;;;;;;;11.69;100.00;100888.63;2071141;28;20508;-69
2022/11/05 03:04:45;;;;;;;31.30;23.83;;;;;;;11.66;100.00;100891.50;2071081;28;20193;-69
2022/11/05 03:06:06;;;;;;;29.30;24.47;;;;;;;11.64;100.00;100888.38;2070104;28;20552;-69
2022/11/05 03:07:22;;;;;;;32.30;24.07;;;;;;;11.64;100.00;100899.47;2070395;28;20193;-68
2022/11/05 03:08:30;;;;;;;26.83;21.70;;;;;;;10.81;100.00;100790.00;2071389;28;20530;-69
2022/11/05 03:09:42;;;;;;;27.50;20.63;;;;;;;11.58;100.00;100909.50;2071045;28;20420;-69
2022/11/05 03:10:55;;;;;;;23.63;19.13;;;;;;;11.54;100.00;100908.81;2071367;28;20989;-69
2022/11/05 03:11:58;;;;;;;24.73;19.97;;;;;;;11.55;100.00;100913.94;2071289;28;20515;-69
2022/11/05 03:12:58;;;;;;;25.33;20.10;;;;;;;11.58;100.00;100910.28;2070872;28;20465;-69
2022/11/05 03:14:23;;;;;;;25.60;21.50;;;;;;;11.61;100.00;100908.66;2071374;28;20459;-69
2022/11/05 03:15:36;;;;;;;26.37;20.83;;;;;;;11.61;100.00;100906.69;2070271;28;20205;-69
2022/11/05 03:16:41;;;;;;;27.80;20.97;;;;;;;11.61;100.00;100917.00;2071173;28;20448;-69
2022/11/05 03:18:01;;;;;;;28.87;20.73;;;;;;;11.58;100.00;100912.28;2071197;28;20441;-69
2022/11/05 03:19:10;;;;;;;29.20;21.00;;;;;;;11.54;100.00;100923.44;2070967;28;20788;-69
2022/11/05 03:20:14;;;;;;;25.43;21.20;;;;;;;11.49;100.00;100912.88;2070808;28;20539;-68
2022/11/05 03:21:22;;;;;;;24.93;20.83;;;;;;;11.48;100.00;100916.84;2070532;28;20479;-69
2022/11/05 03:22:27;;;;;;;25.80;20.83;;;;;;;10.55;100.00;100779.88;2071360;28;20453;-68
2022/11/05 03:23:41;;;;;;;26.33;20.83;;;;;;;11.47;100.00;100911.75;2071395;28;21084;-67
2022/11/05 03:24:47;;;;;;;27.40;21.77;;;;;;;11.46;100.00;100912.94;2071361;28;20984;-67
2022/11/05 03:25:53;;;;;;;29.57;21.07;;;;;;;10.84;100.00;100822.41;2070884;28;20844;-69
2022/11/05 03:27:06;;;;;;;25.80;20.87;;;;;;;11.43;100.00;100919.38;2071372;28;20440;-69
2022/11/05 03:28:09;;;;;;;26.13;21.17;;;;;;;11.42;100.00;100923.38;2070948;28;20933;-69
2022/11/05 03:29:21;;;;;;;27.13;20.50;;;;;;;11.40;100.00;100920.22;2070756;28;20448;-69
2022/11/05 03:30:23;;;;;;;28.03;21.73;;;;;;;11.39;100.00;100925.00;2071154;28;20444;-69
2022/11/05 03:31:25;;;;;;;27.80;21.20;;;;;;;10.67;100.00;100812.47;2071311;28;20478;-69
2022/11/05 03:32:30;;;;;;;25.37;20.37;;;;;;;11.39;100.00;100922.22;2071321;28;20470;-69
2022/11/05 03:33:35;;;;;;;28.17;21.03;;;;;;;11.43;100.00;100917.38;2071163;28;20447;-69
2022/11/05 03:34:45;;;;;;;29.73;20.90;;;;;;;11.43;100.00;100924.91;2071015;28;20470;-68
2022/11/05 03:35:52;;;;;;;27.73;20.47;;;;;;;11.47;100.00;100925.63;2070593;28;20426;-67
2022/11/05 03:36:56;;;;;;;24.67;20.43;;;;;;;11.47;100.00;100929.16;2070538;28;20428;-69
2022/11/05 03:38:09;;;;;;;28.70;20.83;;;;;;;11.45;100.00;100930.81;2071311;28;20515;-69
2022/11/05 03:39:16;;;;;;;25.97;20.77;;;;;;;11.41;100.00;100924.56;2071257;28;20464;-69
2022/11/05 03:40:18;;;;;;;29.93;20.93;;;;;;;11.50;100.00;100938.63;2070429;28;20421;-69
2022/11/05 03:41:21;;;;;;;29.13;20.50;;;;;;;11.51;100.00;100940.19;2070982;28;20490;-69
2022/11/05 03:42:25;;;;;;;27.37;21.00;;;;;;;11.33;100.00;100909.28;2071101;28;20440;-69
2022/11/05 03:43:36;;;;;;;28.83;21.47;;;;;;;11.53;100.00;100926.69;2070741;28;20436;-69
2022/11/05 03:44:40;;;;;;;27.57;21.23;;;;;;;10.50;100.00;100772.06;2070684;28;20424;-69
2022/11/05 03:45:46;;;;;;;29.90;21.63;;;;;;;11.55;100.00;100930.59;2070873;28;20439;-69
2022/11/05 03:46:48;;;;;;;26.57;20.90;;;;;;;11.58;100.00;100935.25;2071357;28;20506;-69
2022/11/05 03:47:53;;;;;;;28.23;21.17;;;;;;;11.59;100.00;100925.75;2070867;28;20433;-69
2022/11/05 03:48:55;;;;;;;27.17;20.67;;;;;;;11.62;100.00;100930.44;2072391;28;20452;-70
2022/11/05 03:50:10;;;;;;;25.80;20.67;;;;;;;11.62;100.00;100933.22;2072033;28;20503;-69
2022/11/05 03:51:44;;;;;;;28.60;21.80;;;;;;;11.65;100.00;100937.13;2072414;28;20509;-69
2022/11/05 03:52:51;;;;;;;26.50;20.63;;;;;;;11.63;100.00;100936.78;2072352;28;20423;-69
2022/11/05 03:53:56;;;;;;;27.93;20.70;;;;;;;11.65;100.00;100931.56;2071865;28;20450;-69
2022/11/05 03:54:57;;;;;;;25.13;19.47;;;;;;;11.66;100.00;100931.16;2072474;28;20559;-69
2022/11/05 03:56:14;;;;;;;28.93;20.47;;;;;;;11.67;100.00;100931.91;2072545;28;20950;-69
2022/11/05 03:57:33;;;;;;;29.17;20.93;;;;;;;11.68;100.00;100928.72;2072518;28;20568;-69
2022/11/05 03:58:35;;;;;;;26.67;20.07;;;;;;;11.67;100.00;100929.13;2071852;28;20451;-69
2022/11/05 03:59:44;;;;;;;25.53;20.57;;;;;;;11.15;100.00;100868.06;2072651;28;20424;-69
2022/11/05 04:00:44;;;;;;;28.83;20.47;;;;;;;11.67;100.00;100941.03;2071901;28;20424;-69
2022/11/05 04:01:46;;;;;;;24.83;21.07;;;;;;;10.80;100.00;100790.41;2072841;28;20969;-69
2022/11/05 04:02:47;;;;;;;25.83;20.33;;;;;;;11.20;100.00;100855.69;2072498;28;20277;-69
2022/11/05 04:03:47;;;;;;;26.33;20.73;;;;;;;11.71;100.00;100921.50;2072381;28;20456;-69
2022/11/05 04:04:48;;;;;;;27.93;20.43;;;;;;;11.69;100.00;100923.94;2072161;28;20220;-70
2022/11/05 04:13:22;;;;;;;31.43;21.67;;;;;;;11.68;100.00;100923.16;2072330;28;20574;-69
2022/11/05 04:13:48;;;;;;;24.40;19.63;;;;;;;11.66;100.00;100922.81;2072259;28;20424;-67
2022/11/05 04:14:48;;;;;;;27.73;19.60;;;;;;;10.78;100.00;100787.31;2071856;28;20479;-67
2022/11/05 04:17:09;;;;;;;29.33;21.10;;;;;;;10.50;100.00;100741.59;2072635;28;20232;-69
2022/11/05 04:18:09;;;;;;;33.83;21.03;;;;;;;11.72;100.00;100932.19;2072482;28;20922;-69
2022/11/05 04:19:09;;;;;;;32.10;21.17;;;;;;;11.72;100.00;100931.41;2072567;28;20232;-70
2022/11/05 04:24:15;;;;;;;30.53;20.43;;;;;;;11.65;100.00;100926.81;2072228;28;20448;-67
2022/11/05 04:25:17;;;;;;;25.03;21.00;;;;;;;11.70;100.00;100925.50;2072125;28;20436;-67
2022/11/05 04:26:22;;;;;;;27.30;19.93;;;;;;;11.68;100.00;100934.25;2079786;28;20223;-67
2022/11/05 04:27:22;;;;;;;26.53;20.93;;;;;;;10.82;100.00;100799.09;2079241;28;20439;-67
2022/11/05 04:30:17;;;;;;;28.50;21.67;;;;;;;11.71;100.00;100927.84;2072356;28;20492;-67
2022/11/05 04:31:02;;;;;;;28.60;20.93;;;;;;;11.70;100.00;100936.59;2071745;28;20436;-69
2022/11/05 04:32:02;;;;;;;26.83;21.13;;;;;;;11.67;100.00;100941.03;2071439;28;20432;-69
2022/11/05 04:33:11;;;;;;;27.07;20.60;;;;;;;11.64;100.00;100946.66;2072362;28;20189;-69
2022/11/05 04:34:11;;;;;;;25.60;19.77;;;;;;;11.62;100.00;100943.53;2072439;28;20332;-69
2022/11/05 04:35:12;;;;;;;29.87;20.30;;;;;;;11.53;100.00;100935.75;2071833;28;20494;-69
2022/11/05 04:36:12;;;;;;;27.53;20.13;;;;;;;11.58;100.00;100945.59;2071842;28;20193;-69
2022/11/05 04:37:12;;;;;;;25.83;20.27;;;;;;;11.57;100.00;100944.00;2072720;28;20281;-67
2022/11/05 04:38:16;;;;;;;27.73;21.83;;;;;;;11.57;100.00;100942.03;2072223;28;20312;-67
2022/11/05 04:39:17;;;;;;;28.53;21.07;;;;;;;11.59;100.00;100955.50;2071527;28;20700;-67
2022/11/05 04:40:18;;;;;;;24.40;19.80;;;;;;;11.59;100.00;100945.16;2070848;28;20445;-67
2022/11/05 04:41:18;;;;;;;24.43;18.97;;;;;;;10.22;100.00;100746.94;2071456;28;20447;-67
2022/11/05 04:42:19;;;;;;;25.10;19.63;;;;;;;11.14;100.00;100880.38;2071538;28;20311;-67
2022/11/05 04:43:37;;;;;;;23.87;19.67;;;;;;;11.49;100.00;100942.63;2072134;28;20185;-67
2022/11/05 04:44:38;;;;;;;24.97;20.47;;;;;;;11.48;100.00;100939.06;2071762;28;20250;-69
2022/11/05 04:45:38;;;;;;;26.40;20.37;;;;;;;11.43;100.00;100941.56;2070989;28;20575;-69
2022/11/05 04:46:39;;;;;;;25.63;20.60;;;;;;;11.44;100.00;100937.59;2071144;28;20193;-70
2022/11/05 04:47:39;;;;;;;28.37;21.17;;;;;;;10.73;100.00;100832.97;2071544;28;20252;-69
2022/11/05 04:48:40;;;;;;;25.17;20.47;;;;;;;11.43;100.00;100941.56;2071935;28;20189;-69
2022/11/05 04:49:40;;;;;;;26.67;21.00;;;;;;;11.43;100.00;100939.56;2071684;28;20204;-69
2022/11/05 04:50:41;;;;;;;29.30;20.90;;;;;;;10.69;100.00;100843.31;2071909;28;20242;-69
2022/11/05 04:51:41;;;;;;;25.30;20.50;;;;;;;11.40;100.00;100943.22;2071524;28;20680;-67
2022/11/05 04:52:42;;;;;;;26.47;20.80;;;;;;;11.43;100.00;100942.34;2070734;28;20268;-67
2022/11/05 04:53:43;;;;;;;29.50;21.37;;;;;;;11.43;100.00;100945.09;2071345;28;20209;-67
2022/11/05 04:54:43;;;;;;;33.33;21.20;;;;;;;11.45;100.00;100947.47;2071961;28;20216;-68
2022/11/05 04:55:43;;;;;;;30.77;24.00;;;;;;;11.46;100.00;100946.25;2071806;28;20200;-67
2022/11/05 04:56:44;;;;;;;28.93;22.37;;;;;;;11.38;100.00;100939.31;2072381;28;20182;-69
2022/11/05 04:57:49;;;;;;;28.83;21.30;;;;;;;11.48;100.00;100966.03;2072110;28;20205;-68
2022/11/05 04:58:50;;;;;;;24.57;20.97;;;;;;;11.49;100.00;100956.50;2071611;28;20243;-69
2022/11/05 04:59:51;;;;;;;33.37;24.03;;;;;;;11.51;100.00;100949.31;2071099;28;20880;-69
2022/11/05 05:00:51;;;;;;;27.37;22.50;;;;;;;11.52;100.00;100955.66;2072213;28;20464;-69
2022/11/05 05:01:52;;;;;;;28.03;22.67;;;;;;;11.57;100.00;100957.88;2072099;28;20662;-69
2022/11/05 05:02:52;;;;;;;31.70;22.40;;;;;;;11.43;100.00;100936.03;2072148;28;20177;-69
2022/11/05 05:03:53;;;;;;;26.40;22.33;;;;;;;11.58;100.00;100956.69;2072127;28;20265;-68
2022/11/05 05:04:54;;;;;;;29.17;22.63;;;;;;;11.61;100.00;100953.88;2071350;28;20190;-69
2022/11/05 05:05:57;;;;;;;25.87;22.20;;;;;;;11.67;100.00;100966.03;2072364;28;20463;-69
2022/11/05 05:06:57;;;;;;;25.93;21.67;;;;;;;11.71;100.00;100960.38;2071362;28;20259;-67
2022/11/05 05:08:02;;;;;;;31.17;23.27;;;;;;;11.57;100.00;100953.13;2072220;28;20484;-68
2022/11/05 05:09:02;;;;;;;31.97;22.97;;;;;;;10.84;100.00;100832.72;2071508;28;20211;-67
2022/11/05 05:10:05;;;;;;;30.17;22.60;;;;;;;11.78;100.00;100969.31;2071990;28;20428;-67
2022/11/05 05:11:09;;;;;;;26.50;22.53;;;;;;;11.82;100.00;100972.00;2071987;28;20193;-69
2022/11/05 05:12:09;;;;;;;28.47;22.47;;;;;;;11.85;100.00;100973.94;2071711;28;20498;-67
2022/11/05 05:13:10;;;;;;;28.33;21.93;;;;;;;11.18;100.00;100874.75;2072037;28;20586;-69
2022/11/05 05:14:11;;;;;;;29.07;21.90;;;;;;;11.89;100.00;100967.06;2070095;28;20738;-70
2022/11/05 05:15:11;;;;;;;28.40;22.00;;;;;;;11.90;100.00;100968.66;2072193;28;20205;-70
2022/11/05 05:16:25;;;;;;;27.37;21.97;;;;;;;11.92;100.00;100963.44;2071184;28;20239;-69
2022/11/05 05:17:26;;;;;;;30.50;21.60;;;;;;;11.86;100.00;100961.63;2071643;28;20189;-69
2022/11/05 05:18:27;;;;;;;29.27;22.07;;;;;;;11.79;100.00;100968.09;2072052;28;20865;-69
2022/11/05 05:19:28;;;;;;;31.27;22.57;;;;;;;11.83;100.00;100971.59;2071680;28;20432;-70
2022/11/05 05:21:47;;;;;;;27.30;21.30;;;;;;;11.95;100.00;100973.66;2071465;28;20184;-69
2022/11/05 05:22:54;;;;;;;25.03;21.00;;;;;;;11.68;100.00;100931.47;2071838;28;20534;-69
2022/11/05 05:23:55;;;;;;;27.10;20.63;;;;;;;12.04;100.00;100993.28;2071056;28;20205;-69
2022/11/05 05:24:55;;;;;;;27.97;22.47;;;;;;;11.30;100.00;100883.19;2071316;28;20453;-69
2022/11/05 05:25:59;;;;;;;26.87;21.13;;;;;;;12.06;100.00;100988.09;2071766;28;20202;-69
2022/11/05 05:27:00;;;;;;;31.67;21.83;;;;;;;12.08;100.00;100982.09;2071480;28;20186;-69
2022/11/05 05:28:00;;;;;;;31.73;21.67;;;;;;;12.12;100.00;100985.56;2071502;28;20955;-69
2022/11/05 05:29:01;;;;;;;27.93;21.33;;;;;;;12.15;100.00;100988.25;2072054;28;20718;-69
2022/11/05 05:30:02;;;;;;;30.87;22.30;;;;;;;12.18;100.00;100989.38;2071103;28;20192;-69